sensor_id;sensor_type;location;lat;lon;timestamp;temperature;humidity
66598;DHT22;57424;53.128;6.406;2023-04-01T00:02:06;19.10;52.70
66598;DHT22;57424;53.128;6.406;2023-04-01T00:04:32;19.10;52.70
66598;DHT22;57424;53.128;6.406;2023-04-01T00:06:58;19.00;52.70
66598;DHT22;57424;53.128;6.406;2023-04-01T00:09:23;19.10;52.80
66598;DHT22;57424;53.128;6.406;2023-04-01T00:11:49;19.10;52.90
66598;DHT22;57424;53.128;6.406;2023-04-01T00:14:15;19.00;52.80
66598;DHT22;57424;53.128;6.406;2023-04-01T00:16:40;19.00;52.90
66598;DHT22;57424;53.128;6.406;2023-04-01T00:19:06;19.00;52.90
66598;DHT22;57424;53.128;6.406;2023-04-01T00:21:32;18.90;52.90
66598;DHT22;57424;53.128;6.406;2023-04-01T00:23:57;18.90;53.00
66598;DHT22;57424;53.128;6.406;2023-04-01T00:26:23;18.90;53.00
66598;DHT22;57424;53.128;6.406;2023-04-01T00:28:50;18.80;53.00
66598;DHT22;57424;53.128;6.406;2023-04-01T00:31:16;18.80;53.10
66598;DHT22;57424;53.128;6.406;2023-04-01T00:33:42;18.80;53.10
66598;DHT22;57424;53.128;6.406;2023-04-01T00:36:10;18.80;53.10
66598;DHT22;57424;53.128;6.406;2023-04-01T00:38:36;18.80;53.20
66598;DHT22;57424;53.128;6.406;2023-04-01T00:41:02;18.80;53.30
66598;DHT22;57424;53.128;6.406;2023-04-01T00:43:28;18.70;53.20
66598;DHT22;57424;53.128;6.406;2023-04-01T00:45:54;18.70;53.30
66598;DHT22;57424;53.128;6.406;2023-04-01T00:48:23;18.70;53.30
66598;DHT22;57424;53.128;6.406;2023-04-01T00:51:11;18.70;53.30
66598;DHT22;57424;53.128;6.406;2023-04-01T00:53:42;18.70;53.30
66598;DHT22;57424;53.128;6.406;2023-04-01T00:56:18;18.60;53.30
66598;DHT22;57424;53.128;6.406;2023-04-01T00:58:47;18.60;53.40
66598;DHT22;57424;53.128;6.406;2023-04-01T01:01:13;18.60;53.40
66598;DHT22;57424;53.128;6.406;2023-04-01T01:03:39;18.60;53.40
66598;DHT22;57424;53.128;6.406;2023-04-01T01:11:29;18.50;53.50
66598;DHT22;57424;53.128;6.406;2023-04-01T01:16:35;18.50;53.50
66598;DHT22;57424;53.128;6.406;2023-04-01T01:19:37;18.50;53.50
66598;DHT22;57424;53.128;6.406;2023-04-01T01:22:32;18.50;53.60
66598;DHT22;57424;53.128;6.406;2023-04-01T01:27:33;18.40;53.60
66598;DHT22;57424;53.128;6.406;2023-04-01T01:30:36;18.40;53.60
66598;DHT22;57424;53.128;6.406;2023-04-01T01:35:48;18.50;53.70
66598;DHT22;57424;53.128;6.406;2023-04-01T01:38:18;18.40;53.70
66598;DHT22;57424;53.128;6.406;2023-04-01T01:40:48;18.40;53.70
66598;DHT22;57424;53.128;6.406;2023-04-01T01:43:18;18.40;53.70
66598;DHT22;57424;53.128;6.406;2023-04-01T01:45:49;18.40;53.70
66598;DHT22;57424;53.128;6.406;2023-04-01T01:48:16;18.40;53.70
66598;DHT22;57424;53.128;6.406;2023-04-01T01:50:44;18.40;53.70
66598;DHT22;57424;53.128;6.406;2023-04-01T01:53:12;18.40;53.70
66598;DHT22;57424;53.128;6.406;2023-04-01T01:55:40;18.40;53.70
66598;DHT22;57424;53.128;6.406;2023-04-01T01:58:35;18.40;53.70
66598;DHT22;57424;53.128;6.406;2023-04-01T02:01:09;18.40;53.80
66598;DHT22;57424;53.128;6.406;2023-04-01T02:03:38;18.40;53.80
66598;DHT22;57424;53.128;6.406;2023-04-01T02:06:08;18.40;53.80
66598;DHT22;57424;53.128;6.406;2023-04-01T02:08:42;18.30;53.70
66598;DHT22;57424;53.128;6.406;2023-04-01T02:11:12;18.30;53.70
66598;DHT22;57424;53.128;6.406;2023-04-01T02:13:50;18.30;53.70
66598;DHT22;57424;53.128;6.406;2023-04-01T02:16:21;18.30;54.40
66598;DHT22;57424;53.128;6.406;2023-04-01T02:18:50;18.30;53.70
66598;DHT22;57424;53.128;6.406;2023-04-01T02:21:23;18.30;53.80
66598;DHT22;57424;53.128;6.406;2023-04-01T02:23:50;18.30;53.80
66598;DHT22;57424;53.128;6.406;2023-04-01T02:26:17;18.30;53.80
66598;DHT22;57424;53.128;6.406;2023-04-01T02:28:45;18.30;53.70
66598;DHT22;57424;53.128;6.406;2023-04-01T02:31:12;18.30;53.80
66598;DHT22;57424;53.128;6.406;2023-04-01T02:33:40;18.20;53.80
66598;DHT22;57424;53.128;6.406;2023-04-01T02:36:11;18.30;53.80
66598;DHT22;57424;53.128;6.406;2023-04-01T02:38:37;18.30;53.80
66598;DHT22;57424;53.128;6.406;2023-04-01T02:41:03;18.30;53.80
66598;DHT22;57424;53.128;6.406;2023-04-01T02:43:30;18.20;53.80
66598;DHT22;57424;53.128;6.406;2023-04-01T02:45:56;18.20;53.80
66598;DHT22;57424;53.128;6.406;2023-04-01T02:48:21;18.20;53.80
66598;DHT22;57424;53.128;6.406;2023-04-01T02:50:47;18.20;53.80
66598;DHT22;57424;53.128;6.406;2023-04-01T02:53:13;18.20;53.80
66598;DHT22;57424;53.128;6.406;2023-04-01T02:55:38;18.20;53.80
66598;DHT22;57424;53.128;6.406;2023-04-01T02:58:04;18.20;53.80
66598;DHT22;57424;53.128;6.406;2023-04-01T03:00:30;18.20;53.80
66598;DHT22;57424;53.128;6.406;2023-04-01T03:02:56;18.30;53.90
66598;DHT22;57424;53.128;6.406;2023-04-01T03:05:22;18.20;53.80
66598;DHT22;57424;53.128;6.406;2023-04-01T03:07:47;18.20;53.80
66598;DHT22;57424;53.128;6.406;2023-04-01T03:10:13;18.20;53.90
66598;DHT22;57424;53.128;6.406;2023-04-01T03:12:39;18.20;53.80
66598;DHT22;57424;53.128;6.406;2023-04-01T03:15:05;18.20;54.50
66598;DHT22;57424;53.128;6.406;2023-04-01T03:17:31;18.20;53.90
66598;DHT22;57424;53.128;6.406;2023-04-01T03:19:56;18.20;54.50
66598;DHT22;57424;53.128;6.406;2023-04-01T03:22:22;18.20;53.80
66598;DHT22;57424;53.128;6.406;2023-04-01T03:24:48;18.20;53.80
66598;DHT22;57424;53.128;6.406;2023-04-01T03:27:14;18.20;53.80
66598;DHT22;57424;53.128;6.406;2023-04-01T03:29:40;18.20;53.80
66598;DHT22;57424;53.128;6.406;2023-04-01T03:32:06;18.20;53.80
66598;DHT22;57424;53.128;6.406;2023-04-01T03:34:32;18.10;53.80
66598;DHT22;57424;53.128;6.406;2023-04-01T03:36:57;18.10;53.80
66598;DHT22;57424;53.128;6.406;2023-04-01T03:39:23;18.20;53.80
66598;DHT22;57424;53.128;6.406;2023-04-01T03:41:49;18.10;53.80
66598;DHT22;57424;53.128;6.406;2023-04-01T03:44:15;18.10;53.80
66598;DHT22;57424;53.128;6.406;2023-04-01T03:46:40;18.10;53.80
66598;DHT22;57424;53.128;6.406;2023-04-01T03:49:07;18.10;53.80
66598;DHT22;57424;53.128;6.406;2023-04-01T03:51:43;18.10;53.80
66598;DHT22;57424;53.128;6.406;2023-04-01T03:54:09;18.10;53.80
66598;DHT22;57424;53.128;6.406;2023-04-01T03:56:35;18.10;53.80
66598;DHT22;57424;53.128;6.406;2023-04-01T03:59:05;18.10;53.80
66598;DHT22;57424;53.128;6.406;2023-04-01T04:01:32;18.10;53.80
66598;DHT22;57424;53.128;6.406;2023-04-01T04:03:58;18.10;53.80
66598;DHT22;57424;53.128;6.406;2023-04-01T04:06:25;18.10;53.80
66598;DHT22;57424;53.128;6.406;2023-04-01T04:08:51;18.10;53.90
66598;DHT22;57424;53.128;6.406;2023-04-01T04:11:17;18.10;53.80
66598;DHT22;57424;53.128;6.406;2023-04-01T04:13:43;18.10;53.80
66598;DHT22;57424;53.128;6.406;2023-04-01T04:16:09;18.10;53.80
66598;DHT22;57424;53.128;6.406;2023-04-01T04:18:36;18.10;53.80
66598;DHT22;57424;53.128;6.406;2023-04-01T04:21:02;18.10;53.80
66598;DHT22;57424;53.128;6.406;2023-04-01T04:23:28;18.10;53.80
66598;DHT22;57424;53.128;6.406;2023-04-01T04:25:57;18.10;53.80
66598;DHT22;57424;53.128;6.406;2023-04-01T04:28:24;18.00;53.80
66598;DHT22;57424;53.128;6.406;2023-04-01T04:30:50;18.00;53.80
66598;DHT22;57424;53.128;6.406;2023-04-01T04:33:15;18.10;53.80
66598;DHT22;57424;53.128;6.406;2023-04-01T04:35:41;18.00;53.80
66598;DHT22;57424;53.128;6.406;2023-04-01T04:38:06;18.00;53.80
66598;DHT22;57424;53.128;6.406;2023-04-01T04:40:32;18.00;53.80
66598;DHT22;57424;53.128;6.406;2023-04-01T04:42:57;18.00;53.80
66598;DHT22;57424;53.128;6.406;2023-04-01T04:45:23;18.10;53.90
66598;DHT22;57424;53.128;6.406;2023-04-01T04:47:49;18.00;53.80
66598;DHT22;57424;53.128;6.406;2023-04-01T04:50:14;18.00;53.80
66598;DHT22;57424;53.128;6.406;2023-04-01T04:52:40;18.00;53.80
66598;DHT22;57424;53.128;6.406;2023-04-01T04:55:06;18.00;53.80
66598;DHT22;57424;53.128;6.406;2023-04-01T04:57:31;18.00;53.80
66598;DHT22;57424;53.128;6.406;2023-04-01T04:59:57;18.00;53.80
66598;DHT22;57424;53.128;6.406;2023-04-01T05:02:22;18.00;53.80
66598;DHT22;57424;53.128;6.406;2023-04-01T05:04:48;18.00;53.90
66598;DHT22;57424;53.128;6.406;2023-04-01T05:07:14;18.00;53.90
66598;DHT22;57424;53.128;6.406;2023-04-01T05:09:39;18.00;53.90
66598;DHT22;57424;53.128;6.406;2023-04-01T05:12:05;18.00;53.90
66598;DHT22;57424;53.128;6.406;2023-04-01T05:14:31;18.00;53.90
66598;DHT22;57424;53.128;6.406;2023-04-01T05:16:56;18.00;53.90
66598;DHT22;57424;53.128;6.406;2023-04-01T05:19:22;18.00;53.80
66598;DHT22;57424;53.128;6.406;2023-04-01T05:21:47;18.00;53.90
66598;DHT22;57424;53.128;6.406;2023-04-01T05:24:13;18.00;53.90
66598;DHT22;57424;53.128;6.406;2023-04-01T05:26:38;18.00;53.90
66598;DHT22;57424;53.128;6.406;2023-04-01T05:29:04;18.00;53.90
66598;DHT22;57424;53.128;6.406;2023-04-01T05:31:30;18.00;53.90
66598;DHT22;57424;53.128;6.406;2023-04-01T05:33:56;18.00;53.90
66598;DHT22;57424;53.128;6.406;2023-04-01T05:36:22;17.90;53.80
66598;DHT22;57424;53.128;6.406;2023-04-01T05:38:47;18.00;53.90
66598;DHT22;57424;53.128;6.406;2023-04-01T05:41:16;17.90;53.80
66598;DHT22;57424;53.128;6.406;2023-04-01T05:43:42;17.90;53.80
66598;DHT22;57424;53.128;6.406;2023-04-01T05:46:07;17.90;53.90
66598;DHT22;57424;53.128;6.406;2023-04-01T05:48:33;17.90;53.80
66598;DHT22;57424;53.128;6.406;2023-04-01T05:51:00;17.90;53.90
66598;DHT22;57424;53.128;6.406;2023-04-01T05:53:26;17.90;53.90
66598;DHT22;57424;53.128;6.406;2023-04-01T05:55:51;17.90;53.90
66598;DHT22;57424;53.128;6.406;2023-04-01T05:58:17;17.90;53.90
66598;DHT22;57424;53.128;6.406;2023-04-01T06:00:43;17.90;53.90
66598;DHT22;57424;53.128;6.406;2023-04-01T06:03:09;17.90;53.90
66598;DHT22;57424;53.128;6.406;2023-04-01T06:05:43;17.90;53.90
66598;DHT22;57424;53.128;6.406;2023-04-01T06:08:17;17.90;53.90
66598;DHT22;57424;53.128;6.406;2023-04-01T06:16:14;17.90;53.90
66598;DHT22;57424;53.128;6.406;2023-04-01T06:21:44;17.90;53.90
66598;DHT22;57424;53.128;6.406;2023-04-01T06:24:37;17.90;53.90
66598;DHT22;57424;53.128;6.406;2023-04-01T06:43:42;17.90;53.90
66598;DHT22;57424;53.128;6.406;2023-04-01T06:46:47;17.90;53.90
66598;DHT22;57424;53.128;6.406;2023-04-01T06:51:50;17.80;53.90
66598;DHT22;57424;53.128;6.406;2023-04-01T06:54:21;17.80;53.90
66598;DHT22;57424;53.128;6.406;2023-04-01T06:56:53;17.80;53.80
66598;DHT22;57424;53.128;6.406;2023-04-01T06:59:26;17.80;53.90
66598;DHT22;57424;53.128;6.406;2023-04-01T07:02:17;17.80;53.90
66598;DHT22;57424;53.128;6.406;2023-04-01T07:04:46;17.80;53.90
66598;DHT22;57424;53.128;6.406;2023-04-01T07:07:25;17.80;53.90
66598;DHT22;57424;53.128;6.406;2023-04-01T07:09:55;17.80;53.90
66598;DHT22;57424;53.128;6.406;2023-04-01T07:15:25;17.80;54.20
66598;DHT22;57424;53.128;6.406;2023-04-01T07:18:03;17.90;54.30
66598;DHT22;57424;53.128;6.406;2023-04-01T07:20:32;17.90;54.30
66598;DHT22;57424;53.128;6.406;2023-04-01T07:23:02;17.90;54.30
66598;DHT22;57424;53.128;6.406;2023-04-01T07:25:37;17.90;54.40
66598;DHT22;57424;53.128;6.406;2023-04-01T07:28:06;17.90;54.30
66598;DHT22;57424;53.128;6.406;2023-04-01T07:33:20;17.90;54.40
66598;DHT22;57424;53.128;6.406;2023-04-01T07:36:06;17.90;54.40
66598;DHT22;57424;53.128;6.406;2023-04-01T07:38:48;17.90;54.30
66598;DHT22;57424;53.128;6.406;2023-04-01T07:52:23;18.00;54.70
66598;DHT22;57424;53.128;6.406;2023-04-01T07:55:23;18.00;54.90
66598;DHT22;57424;53.128;6.406;2023-04-01T07:57:58;18.00;54.90
66598;DHT22;57424;53.128;6.406;2023-04-01T08:00:36;18.00;54.90
66598;DHT22;57424;53.128;6.406;2023-04-01T08:21:52;18.10;55.60
66598;DHT22;57424;53.128;6.406;2023-04-01T08:24:35;18.20;55.60
66598;DHT22;57424;53.128;6.406;2023-04-01T08:27:06;18.20;55.70
66598;DHT22;57424;53.128;6.406;2023-04-01T08:29:46;18.20;55.70
66598;DHT22;57424;53.128;6.406;2023-04-01T08:32:30;18.20;55.80
66598;DHT22;57424;53.128;6.406;2023-04-01T08:35:30;18.30;56.00
66598;DHT22;57424;53.128;6.406;2023-04-01T08:38:01;18.30;56.00
66598;DHT22;57424;53.128;6.406;2023-04-01T08:54:33;18.50;55.80
66598;DHT22;57424;53.128;6.406;2023-04-01T08:57:13;18.50;55.80
66598;DHT22;57424;53.128;6.406;2023-04-01T09:11:06;18.60;55.70
66598;DHT22;57424;53.128;6.406;2023-04-01T09:35:42;18.70;55.70
66598;DHT22;57424;53.128;6.406;2023-04-01T09:41:21;18.80;55.80
66598;DHT22;57424;53.128;6.406;2023-04-01T09:44:28;18.80;55.70
66598;DHT22;57424;53.128;6.406;2023-04-01T09:55:33;18.80;55.70
66598;DHT22;57424;53.128;6.406;2023-04-01T09:58:27;18.80;55.70
66598;DHT22;57424;53.128;6.406;2023-04-01T10:04:31;18.80;55.60
66598;DHT22;57424;53.128;6.406;2023-04-01T10:07:28;18.80;55.60
66598;DHT22;57424;53.128;6.406;2023-04-01T10:30:04;19.00;55.60
66598;DHT22;57424;53.128;6.406;2023-04-01T10:38:26;19.10;55.70
66598;DHT22;57424;53.128;6.406;2023-04-01T10:41:16;19.10;55.50
66598;DHT22;57424;53.128;6.406;2023-04-01T10:52:45;19.10;55.10
66598;DHT22;57424;53.128;6.406;2023-04-01T11:25:48;19.40;54.70
66598;DHT22;57424;53.128;6.406;2023-04-01T11:31:20;19.40;54.60
66598;DHT22;57424;53.128;6.406;2023-04-01T11:34:01;19.40;54.50
66598;DHT22;57424;53.128;6.406;2023-04-01T11:42:20;19.40;54.40
66598;DHT22;57424;53.128;6.406;2023-04-01T11:53:20;19.40;54.20
66598;DHT22;57424;53.128;6.406;2023-04-01T12:02:25;19.40;54.10
66598;DHT22;57424;53.128;6.406;2023-04-01T12:08:06;19.40;54.00
66598;DHT22;57424;53.128;6.406;2023-04-01T12:10:53;19.40;53.90
66598;DHT22;57424;53.128;6.406;2023-04-01T12:18:50;19.40;53.90
66598;DHT22;57424;53.128;6.406;2023-04-01T12:21:21;19.40;53.90
66598;DHT22;57424;53.128;6.406;2023-04-01T12:24:15;19.40;53.90
66598;DHT22;57424;53.128;6.406;2023-04-01T12:30:10;19.40;53.90
66598;DHT22;57424;53.128;6.406;2023-04-01T12:37:55;19.40;53.80
66598;DHT22;57424;53.128;6.406;2023-04-01T12:43:43;19.40;53.80
66598;DHT22;57424;53.128;6.406;2023-04-01T12:46:36;19.40;53.80
66598;DHT22;57424;53.128;6.406;2023-04-01T12:52:04;19.30;53.70
66598;DHT22;57424;53.128;6.406;2023-04-01T13:08:14;19.30;53.80
66598;DHT22;57424;53.128;6.406;2023-04-01T13:16:29;19.30;53.90
66598;DHT22;57424;53.128;6.406;2023-04-01T13:27:20;19.30;54.20
66598;DHT22;57424;53.128;6.406;2023-04-01T13:43:23;19.30;54.50
66598;DHT22;57424;53.128;6.406;2023-04-01T13:48:30;19.30;54.60
66598;DHT22;57424;53.128;6.406;2023-04-01T14:08:34;19.40;55.00
66598;DHT22;57424;53.128;6.406;2023-04-01T14:11:25;19.40;55.00
66598;DHT22;57424;53.128;6.406;2023-04-01T14:17:10;19.50;55.10
66598;DHT22;57424;53.128;6.406;2023-04-01T14:31:04;19.60;55.20
66598;DHT22;57424;53.128;6.406;2023-04-01T14:49:49;19.80;55.30
66598;DHT22;57424;53.128;6.406;2023-04-01T14:52:25;19.70;55.10
66598;DHT22;57424;53.128;6.406;2023-04-01T14:54:53;19.70;55.10
66598;DHT22;57424;53.128;6.406;2023-04-01T14:57:29;19.70;55.20
66598;DHT22;57424;53.128;6.406;2023-04-01T15:02:54;19.80;55.10
66598;DHT22;57424;53.128;6.406;2023-04-01T15:08:35;19.70;55.00
66598;DHT22;57424;53.128;6.406;2023-04-01T15:11:26;19.80;55.10
66598;DHT22;57424;53.128;6.406;2023-04-01T15:22:37;19.70;54.70
66598;DHT22;57424;53.128;6.406;2023-04-01T15:33:24;19.70;54.50
66598;DHT22;57424;53.128;6.406;2023-04-01T15:41:22;19.60;54.30
66598;DHT22;57424;53.128;6.406;2023-04-01T15:43:51;19.50;54.10
66598;DHT22;57424;53.128;6.406;2023-04-01T16:02:43;19.50;54.50
66598;DHT22;57424;53.128;6.406;2023-04-01T16:07:55;19.40;54.30
66598;DHT22;57424;53.128;6.406;2023-04-01T16:13:16;19.40;54.40
66598;DHT22;57424;53.128;6.406;2023-04-01T16:16:07;19.40;54.40
66598;DHT22;57424;53.128;6.406;2023-04-01T16:18:55;19.40;54.50
66598;DHT22;57424;53.128;6.406;2023-04-01T16:24:05;19.40;54.50
66598;DHT22;57424;53.128;6.406;2023-04-01T16:27:02;19.40;54.50
66598;DHT22;57424;53.128;6.406;2023-04-01T16:29:56;19.30;54.50
66598;DHT22;57424;53.128;6.406;2023-04-01T16:32:44;19.30;54.50
66598;DHT22;57424;53.128;6.406;2023-04-01T16:35:23;19.40;54.60
66598;DHT22;57424;53.128;6.406;2023-04-01T16:45:53;19.30;54.50
66598;DHT22;57424;53.128;6.406;2023-04-01T16:48:49;19.30;54.60
66598;DHT22;57424;53.128;6.406;2023-04-01T16:51:17;19.30;54.70
66598;DHT22;57424;53.128;6.406;2023-04-01T16:54:06;19.30;54.70
66598;DHT22;57424;53.128;6.406;2023-04-01T16:59:44;19.20;54.60
66598;DHT22;57424;53.128;6.406;2023-04-01T17:02:14;19.20;54.70
66598;DHT22;57424;53.128;6.406;2023-04-01T17:07:22;19.20;54.70
66598;DHT22;57424;53.128;6.406;2023-04-01T17:18:34;19.20;54.60
66598;DHT22;57424;53.128;6.406;2023-04-01T17:21:44;19.10;54.50
66598;DHT22;57424;53.128;6.406;2023-04-01T17:30:56;19.10;54.60
66598;DHT22;57424;53.128;6.406;2023-04-01T17:39:31;19.10;54.70
66598;DHT22;57424;53.128;6.406;2023-04-01T17:42:11;19.10;54.60
66598;DHT22;57424;53.128;6.406;2023-04-01T17:45:04;19.10;54.60
66598;DHT22;57424;53.128;6.406;2023-04-01T17:47:49;19.10;54.60
66598;DHT22;57424;53.128;6.406;2023-04-01T17:50:22;19.10;54.70
66598;DHT22;57424;53.128;6.406;2023-04-01T18:04:07;19.00;54.60
66598;DHT22;57424;53.128;6.406;2023-04-01T18:06:47;19.00;54.60
66598;DHT22;57424;53.128;6.406;2023-04-01T18:23:30;19.00;54.60
66598;DHT22;57424;53.128;6.406;2023-04-01T18:26:10;18.90;54.50
66598;DHT22;57424;53.128;6.406;2023-04-01T18:28:38;18.90;54.50
66598;DHT22;57424;53.128;6.406;2023-04-01T18:31:09;18.90;54.50
66598;DHT22;57424;53.128;6.406;2023-04-01T18:36:56;18.90;54.40
66598;DHT22;57424;53.128;6.406;2023-04-01T18:39:40;18.90;54.40
66598;DHT22;57424;53.128;6.406;2023-04-01T18:45:02;18.90;54.40
66598;DHT22;57424;53.128;6.406;2023-04-01T18:47:58;18.90;54.40
66598;DHT22;57424;53.128;6.406;2023-04-01T18:55:58;18.90;54.30
66598;DHT22;57424;53.128;6.406;2023-04-01T18:58:35;18.80;54.30
66598;DHT22;57424;53.128;6.406;2023-04-01T19:01:15;18.90;54.30
66598;DHT22;57424;53.128;6.406;2023-04-01T19:03:52;18.80;54.20
66598;DHT22;57424;53.128;6.406;2023-04-01T19:09:29;18.80;54.20
66598;DHT22;57424;53.128;6.406;2023-04-01T19:12:11;18.80;54.10
66598;DHT22;57424;53.128;6.406;2023-04-01T19:22:57;18.80;54.10
66598;DHT22;57424;53.128;6.406;2023-04-01T19:25:54;18.80;54.10
66598;DHT22;57424;53.128;6.406;2023-04-01T19:36:11;18.80;54.10
66598;DHT22;57424;53.128;6.406;2023-04-01T19:38:43;18.80;54.00
66598;DHT22;57424;53.128;6.406;2023-04-01T19:43:59;18.70;53.70
66598;DHT22;57424;53.128;6.406;2023-04-01T19:46:36;18.70;53.80
66598;DHT22;57424;53.128;6.406;2023-04-01T19:49:33;18.70;53.80
66598;DHT22;57424;53.128;6.406;2023-04-01T20:00:14;18.60;53.50
66598;DHT22;57424;53.128;6.406;2023-04-01T20:03:24;18.60;53.70
66598;DHT22;57424;53.128;6.406;2023-04-01T20:11:38;18.60;54.00
66598;DHT22;57424;53.128;6.406;2023-04-01T20:14:25;18.60;53.90
66598;DHT22;57424;53.128;6.406;2023-04-01T20:16:55;18.60;53.80
66598;DHT22;57424;53.128;6.406;2023-04-01T20:22:38;18.60;53.50
66598;DHT22;57424;53.128;6.406;2023-04-01T20:31:20;18.60;53.60
66598;DHT22;57424;53.128;6.406;2023-04-01T20:42:34;18.50;53.10
66598;DHT22;57424;53.128;6.406;2023-04-01T20:45:33;18.50;53.10
66598;DHT22;57424;53.128;6.406;2023-04-01T20:49:20;18.50;52.90
66598;DHT22;57424;53.128;6.406;2023-04-01T20:51:15;18.50;52.90
66598;DHT22;57424;53.128;6.406;2023-04-01T21:02:36;18.50;53.00
66598;DHT22;57424;53.128;6.406;2023-04-01T21:15:41;18.40;52.60
66598;DHT22;57424;53.128;6.406;2023-04-01T21:18:34;18.40;52.60
66598;DHT22;57424;53.128;6.406;2023-04-01T21:21:33;18.40;52.80
66598;DHT22;57424;53.128;6.406;2023-04-01T21:26:45;18.40;52.60
66598;DHT22;57424;53.128;6.406;2023-04-01T21:34:37;18.30;52.60
66598;DHT22;57424;53.128;6.406;2023-04-01T21:40:24;18.30;52.60
66598;DHT22;57424;53.128;6.406;2023-04-01T21:43:22;18.30;52.50
66598;DHT22;57424;53.128;6.406;2023-04-01T21:57:11;18.30;52.30
66598;DHT22;57424;53.128;6.406;2023-04-01T22:05:38;18.20;52.40
66598;DHT22;57424;53.128;6.406;2023-04-01T22:10:59;18.20;52.30
66598;DHT22;57424;53.128;6.406;2023-04-01T22:13:41;18.20;52.30
66598;DHT22;57424;53.128;6.406;2023-04-01T22:16:32;18.20;52.30
66598;DHT22;57424;53.128;6.406;2023-04-01T22:19:15;18.20;52.20
66598;DHT22;57424;53.128;6.406;2023-04-01T22:22:18;18.10;52.10
66598;DHT22;57424;53.128;6.406;2023-04-01T22:27:34;18.10;52.10
66598;DHT22;57424;53.128;6.406;2023-04-01T22:30:24;18.10;52.20
66598;DHT22;57424;53.128;6.406;2023-04-01T22:33:09;18.10;52.10
66598;DHT22;57424;53.128;6.406;2023-04-01T22:38:59;18.10;52.10
66598;DHT22;57424;53.128;6.406;2023-04-01T22:42:14;18.00;52.10
66598;DHT22;57424;53.128;6.406;2023-04-01T22:44:43;18.10;52.00
66598;DHT22;57424;53.128;6.406;2023-04-01T22:49:51;18.10;52.10
66598;DHT22;57424;53.128;6.406;2023-04-01T22:52:39;18.00;52.00
66598;DHT22;57424;53.128;6.406;2023-04-01T22:55:20;18.00;52.00
66598;DHT22;57424;53.128;6.406;2023-04-01T22:58:05;18.00;51.90
66598;DHT22;57424;53.128;6.406;2023-04-01T23:00:41;18.00;51.90
66598;DHT22;57424;53.128;6.406;2023-04-01T23:03:25;18.00;51.90
66598;DHT22;57424;53.128;6.406;2023-04-01T23:05:54;18.00;51.90
66598;DHT22;57424;53.128;6.406;2023-04-01T23:08:34;18.00;51.90
66598;DHT22;57424;53.128;6.406;2023-04-01T23:11:06;17.90;51.80
66598;DHT22;57424;53.128;6.406;2023-04-01T23:13:38;18.00;52.00
66598;DHT22;57424;53.128;6.406;2023-04-01T23:16:06;17.90;51.90
66598;DHT22;57424;53.128;6.406;2023-04-01T23:18:48;17.90;51.90
66598;DHT22;57424;53.128;6.406;2023-04-01T23:21:35;17.90;51.80
66598;DHT22;57424;53.128;6.406;2023-04-01T23:29:23;17.90;51.70
66598;DHT22;57424;53.128;6.406;2023-04-01T23:32:15;17.90;51.70
66598;DHT22;57424;53.128;6.406;2023-04-01T23:34:47;17.90;51.70
66598;DHT22;57424;53.128;6.406;2023-04-01T23:37:14;17.90;51.80
66598;DHT22;57424;53.128;6.406;2023-04-01T23:39:44;17.90;51.80
66598;DHT22;57424;53.128;6.406;2023-04-01T23:44:49;17.90;51.80
66598;DHT22;57424;53.128;6.406;2023-04-01T23:47:19;17.80;51.70
66598;DHT22;57424;53.128;6.406;2023-04-01T23:49:48;17.90;51.80
66598;DHT22;57424;53.128;6.406;2023-04-01T23:52:27;17.80;51.70
66598;DHT22;57424;53.128;6.406;2023-04-01T23:55:13;17.80;51.60
66598;DHT22;57424;53.128;6.406;2023-04-01T23:57:39;17.80;51.70
